Terminal Aerodrome Forecast
Issued by NWS Wilmington, OH

Current Version | Previous Version | Text Only | Print | Product List | Glossary Off
Versions: 1 2 3 4 5 6 7 8 9 10 11 12 13 14 15

522
FTUS41 KILN 111741
TAFILN
TAF
KILN 111741Z 1118/1218 27008KT P6SM SCT030 SCT050
     FM120000 26005KT P6SM FEW050
     FM120400 VRB03KT P6SM BKN120
     FM121100 19005KT P6SM BKN050 OVC080
     FM121500 24008KT P6SM OVC040=

USA.gov is the U.S. government's official web portal to all federal, state and local government web resources and services.